createdAt,value
2023-01-03T00:01:32.597Z,0.50
2023-01-03T00:04:01.196Z,0.50
2023-01-03T00:06:38.195Z,0.57
2023-01-03T00:09:08.760Z,0.70
2023-01-03T00:11:56.397Z,0.60
2023-01-03T00:14:29.864Z,0.63
2023-01-03T00:16:59.998Z,0.68
2023-01-03T00:19:29.434Z,0.50
2023-01-03T00:21:56.995Z,0.60
2023-01-03T00:24:24.557Z,0.73
2023-01-03T00:26:51.962Z,0.65
2023-01-03T00:29:19.530Z,0.70
2023-01-03T00:31:46.925Z,0.60
2023-01-03T00:34:14.028Z,0.68
2023-01-03T00:36:41.885Z,0.70
2023-01-03T00:39:09.074Z,0.65
2023-01-03T00:41:36.182Z,0.70
2023-01-03T00:44:04.033Z,0.55
2023-01-03T00:46:31.325Z,0.57
2023-01-03T00:48:58.436Z,0.75
2023-01-03T00:51:28.827Z,0.77
2023-01-03T00:56:26.389Z,0.82
2023-01-03T00:58:54.008Z,0.60
2023-01-03T01:01:25.958Z,0.65
2023-01-03T01:04:00.082Z,0.85
2023-01-03T01:06:30.764Z,0.60
2023-01-03T01:08:59.569Z,0.70
2023-01-03T01:11:27.975Z,0.70
2023-01-03T01:13:56.767Z,0.73
2023-01-03T01:16:30.262Z,0.60
2023-01-03T01:19:00.138Z,0.47
2023-01-03T01:21:31.578Z,0.90
2023-01-03T01:24:00.247Z,0.60
2023-01-03T01:26:27.642Z,0.70
2023-01-03T01:28:55.332Z,0.60
2023-01-03T01:31:24.963Z,0.60
2023-01-03T01:33:53.572Z,0.70
2023-01-03T01:36:33.213Z,0.70
2023-01-03T01:39:21.845Z,0.75
2023-01-03T01:42:13.722Z,0.77
2023-01-03T01:44:54.671Z,0.70
2023-01-03T01:47:33.966Z,0.90
2023-01-03T01:50:39.389Z,0.50
2023-01-03T01:53:11.589Z,0.68
2023-01-03T01:55:47.314Z,0.50
2023-01-03T01:58:14.869Z,0.65
2023-01-03T02:00:43.943Z,0.68
2023-01-03T02:03:12.297Z,0.60
2023-01-03T02:05:44.434Z,0.70
2023-01-03T02:08:13.041Z,0.80
2023-01-03T02:11:20.751Z,0.70
2023-01-03T02:14:06.208Z,0.70
2023-01-03T02:16:48.527Z,0.70
2023-01-03T02:20:08.242Z,0.90
2023-01-03T02:22:49.105Z,0.70
2023-01-03T02:25:53.959Z,0.90
2023-01-03T02:28:26.673Z,1.00
2023-01-03T02:31:03.164Z,0.80
2023-01-03T02:33:51.731Z,0.90
2023-01-03T02:37:01.518Z,1.13
2023-01-03T02:39:45.370Z,0.80
2023-01-03T02:42:54.366Z,0.80
2023-01-03T02:46:00.276Z,0.80
2023-01-03T02:48:30.474Z,0.95
2023-01-03T02:51:01.996Z,1.30
2023-01-03T02:53:37.846Z,2.25
2023-01-03T02:56:08.608Z,1.65
2023-01-03T02:58:38.170Z,1.27
2023-01-03T03:01:09.037Z,1.40
2023-01-03T03:03:39.127Z,1.42
2023-01-03T03:06:12.181Z,1.08
2023-01-03T03:08:39.517Z,1.10
2023-01-03T03:11:25.790Z,1.10
2023-01-03T03:14:01.965Z,1.20
2023-01-03T03:16:48.099Z,1.00
2023-01-03T03:19:47.697Z,1.00
2023-01-03T03:23:03.590Z,1.10
2023-01-03T03:25:36.221Z,1.10
2023-01-03T03:28:28.048Z,0.90
2023-01-03T03:30:58.941Z,1.23
2023-01-03T03:33:29.191Z,0.90
2023-01-03T03:36:14.492Z,0.80
2023-01-03T03:38:45.051Z,0.80
2023-01-03T03:41:45.818Z,0.82
2023-01-03T03:44:49.501Z,0.93
2023-01-03T03:47:32.363Z,0.90
2023-01-03T03:50:08.780Z,0.85
2023-01-03T03:52:36.955Z,0.85
2023-01-03T03:55:13.701Z,1.00
2023-01-03T03:57:49.384Z,0.80
2023-01-03T04:00:23.337Z,0.77
2023-01-03T04:02:51.464Z,0.82
2023-01-03T04:05:22.182Z,0.82
2023-01-03T04:07:50.022Z,0.90
2023-01-03T04:10:20.544Z,0.88
2023-01-03T04:12:48.911Z,0.80
2023-01-03T04:15:16.763Z,0.82
2023-01-03T04:17:44.442Z,0.98
2023-01-03T04:20:12.253Z,1.10
2023-01-03T04:22:39.541Z,1.10
2023-01-03T04:25:07.504Z,1.02
2023-01-03T04:27:34.699Z,1.10
2023-01-03T04:30:01.816Z,1.17
2023-01-03T04:32:29.019Z,1.52
2023-01-03T04:34:56.044Z,1.45
2023-01-03T04:37:23.107Z,1.40
2023-01-03T04:39:50.201Z,1.48
2023-01-03T04:42:35.581Z,1.50
2023-01-03T04:45:02.674Z,1.48
2023-01-03T04:47:29.790Z,1.70
2023-01-03T04:49:56.829Z,1.92
2023-01-03T04:52:23.965Z,1.73
2023-01-03T04:54:51.075Z,1.77
2023-01-03T04:57:18.166Z,1.40
2023-01-03T04:59:45.236Z,1.33
2023-01-03T05:02:12.523Z,1.33
2023-01-03T05:04:39.840Z,1.85
2023-01-03T05:07:07.469Z,1.67
2023-01-03T05:09:35.051Z,1.60
2023-01-03T05:12:02.090Z,1.10
2023-01-03T05:14:29.201Z,1.40
2023-01-03T05:16:56.459Z,1.50
2023-01-03T05:19:23.746Z,1.70
2023-01-03T05:22:09.453Z,1.60
2023-01-03T05:24:55.366Z,1.65
2023-01-03T05:27:22.861Z,1.55
2023-01-03T05:29:53.156Z,1.40
2023-01-03T05:34:48.105Z,1.60
2023-01-03T05:37:15.078Z,1.60
2023-01-03T05:39:42.114Z,1.67
2023-01-03T05:42:09.205Z,1.30
2023-01-03T05:44:36.940Z,1.65
2023-01-03T05:47:05.110Z,1.60
2023-01-03T05:49:32.308Z,1.70
2023-01-03T05:51:59.347Z,1.70
2023-01-03T05:54:26.477Z,1.38
2023-01-03T05:56:53.595Z,1.80
2023-01-03T05:59:21.373Z,1.35
2023-01-03T06:01:49.435Z,1.30
2023-01-03T06:04:16.707Z,2.05
2023-01-03T06:06:43.820Z,1.50
2023-01-03T06:09:11.235Z,1.65
2023-01-03T06:11:40.259Z,1.40
2023-01-03T06:14:07.852Z,1.85
2023-01-03T06:17:07.296Z,1.80
2023-01-03T06:19:34.441Z,1.92
2023-01-03T06:22:05.611Z,1.70
2023-01-03T06:24:37.207Z,1.48
2023-01-03T06:27:04.353Z,1.98
2023-01-03T06:29:31.449Z,1.80
2023-01-03T06:32:02.175Z,1.73
2023-01-03T06:34:32.317Z,2.30
2023-01-03T06:36:59.334Z,2.08
2023-01-03T06:39:26.409Z,1.95
2023-01-03T06:41:53.551Z,2.25
2023-01-03T06:44:20.744Z,2.72
2023-01-03T06:47:06.210Z,3.10
2023-01-03T06:49:51.691Z,2.30
2023-01-03T06:52:37.568Z,2.65
2023-01-03T06:55:04.964Z,2.60
2023-01-03T06:57:32.150Z,2.28
2023-01-03T06:59:59.680Z,2.20
2023-01-03T07:02:27.028Z,2.10
2023-01-03T07:04:54.429Z,1.80
2023-01-03T07:07:21.673Z,2.22
2023-01-03T07:09:48.792Z,1.70
2023-01-03T07:12:38.318Z,1.58
2023-01-03T07:15:05.912Z,1.70
2023-01-03T07:17:32.949Z,1.40
2023-01-03T07:20:00.038Z,1.70
2023-01-03T07:22:27.706Z,1.83
2023-01-03T07:24:54.846Z,1.45
2023-01-03T07:27:22.210Z,1.60
2023-01-03T07:29:49.298Z,1.83
2023-01-03T07:32:16.547Z,2.30
2023-01-03T07:34:43.532Z,2.20
2023-01-03T07:37:10.623Z,2.05
2023-01-03T07:39:37.812Z,2.33
2023-01-03T07:42:23.327Z,2.10
2023-01-03T07:44:50.403Z,2.75
2023-01-03T07:47:17.525Z,2.20
2023-01-03T07:49:44.568Z,2.15
2023-01-03T07:52:11.609Z,2.38
2023-01-03T07:54:38.765Z,2.20
2023-01-03T07:57:06.055Z,1.98
2023-01-03T07:59:33.143Z,1.92
2023-01-03T08:02:00.298Z,1.90
2023-01-03T08:04:27.863Z,1.67
2023-01-03T08:06:55.025Z,1.63
2023-01-03T08:09:40.660Z,1.52
2023-01-03T08:12:28.344Z,1.95
2023-01-03T08:14:55.415Z,1.38
2023-01-03T08:17:22.578Z,1.42
2023-01-03T08:19:49.761Z,1.75
2023-01-03T08:22:17.105Z,1.63
2023-01-03T08:24:44.202Z,1.80
2023-01-03T08:27:11.306Z,1.90
2023-01-03T08:29:38.448Z,1.80
2023-01-03T08:32:06.723Z,1.95
2023-01-03T08:34:37.182Z,1.83
2023-01-03T08:37:11.261Z,1.75
2023-01-03T08:39:47.243Z,1.70
2023-01-03T08:42:16.690Z,1.58
2023-01-03T08:44:45.394Z,1.73
2023-01-03T08:47:14.986Z,1.80
2023-01-03T08:49:42.790Z,1.70
2023-01-03T08:52:09.938Z,1.67
2023-01-03T08:54:37.183Z,1.48
2023-01-03T08:57:04.303Z,1.50
2023-01-03T08:59:31.767Z,1.40
2023-01-03T09:02:00.432Z,1.55
2023-01-03T09:04:27.890Z,1.65
2023-01-03T09:06:55.105Z,1.40
2023-01-03T09:09:22.357Z,1.50
2023-01-03T09:11:49.722Z,4.22
2023-01-03T09:14:16.822Z,1.65
2023-01-03T09:16:48.726Z,1.70
2023-01-03T09:19:16.585Z,1.55
2023-01-03T09:21:43.713Z,1.48
2023-01-03T09:24:10.806Z,1.70
2023-01-03T09:26:38.004Z,1.40
2023-01-03T09:29:05.171Z,1.98
2023-01-03T09:31:35.076Z,1.90
2023-01-03T09:34:04.863Z,1.92
2023-01-03T09:36:32.606Z,2.20
2023-01-03T09:38:59.727Z,2.70
2023-01-03T09:41:28.207Z,2.03
2023-01-03T09:44:08.195Z,1.80
2023-01-03T09:46:36.186Z,2.30
2023-01-03T09:49:06.091Z,5.57
2023-01-03T09:51:59.209Z,2.45
2023-01-03T09:54:52.477Z,1.90
2023-01-03T09:57:42.978Z,2.15
2023-01-03T10:00:39.807Z,1.50
2023-01-03T10:03:49.840Z,1.45
2023-01-03T10:06:47.671Z,1.88
2023-01-03T10:09:41.622Z,1.60
2023-01-03T10:12:41.595Z,2.33
2023-01-03T10:15:31.825Z,1.67
2023-01-03T10:18:26.588Z,1.83
2023-01-03T10:21:00.676Z,2.05
2023-01-03T10:23:29.451Z,1.83
2023-01-03T10:25:57.256Z,1.67
2023-01-03T10:28:36.593Z,1.80
2023-01-03T10:31:25.844Z,2.05
2023-01-03T10:33:52.956Z,1.70
2023-01-03T10:36:22.130Z,1.65
2023-01-03T10:39:02.092Z,1.88
2023-01-03T10:41:44.536Z,1.60
2023-01-03T10:44:29.437Z,1.73
2023-01-03T10:47:08.610Z,1.90
2023-01-03T10:49:35.751Z,1.40
2023-01-03T10:52:02.864Z,1.63
2023-01-03T10:54:46.937Z,1.50
2023-01-03T10:57:55.832Z,1.60
2023-01-03T11:00:29.020Z,1.40
2023-01-03T11:03:09.914Z,1.63
2023-01-03T11:05:38.105Z,1.60
2023-01-03T11:08:13.609Z,1.38
2023-01-03T11:11:01.016Z,1.60
2023-01-03T11:13:37.383Z,1.80
2023-01-03T11:16:14.340Z,1.83
2023-01-03T11:18:43.022Z,1.80
2023-01-03T11:21:26.621Z,3.63
2023-01-03T11:24:18.340Z,2.70
2023-01-03T11:27:24.024Z,2.33
2023-01-03T11:30:26.393Z,2.00
2023-01-03T11:33:22.680Z,1.83
2023-01-03T11:36:12.491Z,1.80
2023-01-03T11:38:52.118Z,2.10
2023-01-03T11:41:51.521Z,1.67
2023-01-03T11:44:39.363Z,1.80
2023-01-03T11:47:30.615Z,1.52
2023-01-03T11:50:28.067Z,1.67
2023-01-03T11:53:16.689Z,1.95
2023-01-03T11:56:07.328Z,1.45
2023-01-03T11:58:52.443Z,1.63
2023-01-03T12:01:25.570Z,1.55
2023-01-03T12:04:13.582Z,2.22
2023-01-03T12:10:08.396Z,1.17
2023-01-03T12:12:58.619Z,1.48
2023-01-03T12:15:32.124Z,1.60
2023-01-03T12:18:23.032Z,1.10
2023-01-03T12:20:57.454Z,1.00
2023-01-03T12:23:49.103Z,0.95
2023-01-03T12:26:17.559Z,1.05
2023-01-03T12:29:20.325Z,1.17
2023-01-03T12:32:09.563Z,1.20
2023-01-03T12:34:50.427Z,1.20
2023-01-03T12:37:20.746Z,1.40
2023-01-03T12:42:48.015Z,1.83
2023-01-03T12:45:15.253Z,1.50
2023-01-03T12:47:54.186Z,1.58
2023-01-03T12:50:30.433Z,2.05
2023-01-03T12:53:14.689Z,1.90
2023-01-03T12:56:08.332Z,1.70
2023-01-03T12:59:00.313Z,2.10
2023-01-03T13:01:34.835Z,1.92
2023-01-03T13:04:27.626Z,1.70
2023-01-03T13:07:12.241Z,1.80
2023-01-03T13:09:44.974Z,2.03
2023-01-03T13:12:19.258Z,1.67
2023-01-03T13:14:54.655Z,2.00
2023-01-03T13:17:29.124Z,2.33
2023-01-03T13:20:18.584Z,2.42
2023-01-03T13:22:52.229Z,2.50
2023-01-03T13:25:42.551Z,5.22
2023-01-03T13:28:21.234Z,2.00
2023-01-03T13:30:48.890Z,2.13
2023-01-03T13:33:19.156Z,4.88
2023-01-03T13:35:46.116Z,3.08
2023-01-03T13:38:39.312Z,4.28
2023-01-03T13:41:32.289Z,2.22
2023-01-03T13:44:09.802Z,2.03
2023-01-03T13:46:42.195Z,3.55
2023-01-03T13:49:19.396Z,5.15
2023-01-03T13:51:51.996Z,5.07
2023-01-03T13:54:19.064Z,4.75
2023-01-03T13:56:46.153Z,3.55
2023-01-03T13:59:18.019Z,3.30
2023-01-03T14:01:51.129Z,3.42
2023-01-03T14:04:49.125Z,3.85
2023-01-03T14:07:47.819Z,3.30
2023-01-03T14:10:47.055Z,3.08
2023-01-03T14:13:26.435Z,3.47
2023-01-03T14:16:39.895Z,3.27
2023-01-03T14:19:18.143Z,4.13
2023-01-03T14:21:54.734Z,4.80
2023-01-03T14:24:31.773Z,5.97
2023-01-03T14:27:14.777Z,5.85
2023-01-03T14:29:52.660Z,4.72
2023-01-03T14:32:27.531Z,2.67
2023-01-03T14:34:57.868Z,2.92
2023-01-03T14:37:26.714Z,3.08
2023-01-03T14:39:56.413Z,3.25
2023-01-03T14:42:24.645Z,3.00
2023-01-03T14:44:56.858Z,3.00
2023-01-03T14:47:31.562Z,3.15
2023-01-03T14:49:59.070Z,2.88
2023-01-03T14:52:33.217Z,5.15
2023-01-03T14:55:07.251Z,2.50
2023-01-03T14:57:39.340Z,2.58
2023-01-03T15:00:08.612Z,2.58
2023-01-03T15:02:39.419Z,2.50
2023-01-03T15:05:27.423Z,2.50
2023-01-03T15:07:55.548Z,2.80
2023-01-03T15:10:41.394Z,2.22
2023-01-03T15:13:19.656Z,2.40
2023-01-03T15:15:54.947Z,2.38
2023-01-03T15:18:24.872Z,2.38
2023-01-03T15:20:55.407Z,2.28
2023-01-03T15:23:29.158Z,2.35
2023-01-03T15:25:56.275Z,2.00
2023-01-03T15:28:25.743Z,2.58
2023-01-03T15:30:55.960Z,2.37
2023-01-03T15:33:35.001Z,3.05
2023-01-03T15:36:19.160Z,3.95
2023-01-03T15:38:48.984Z,3.30
2023-01-03T15:41:46.704Z,2.83
2023-01-03T15:44:19.182Z,3.20
2023-01-03T15:46:47.080Z,3.13
2023-01-03T15:49:17.033Z,3.03
2023-01-03T15:51:44.220Z,3.38
2023-01-03T15:54:16.405Z,2.97
2023-01-03T15:57:00.436Z,3.33
2023-01-03T15:59:33.726Z,3.33
2023-01-03T16:02:03.165Z,2.90
2023-01-03T16:04:30.399Z,3.33
2023-01-03T16:06:57.486Z,3.20
2023-01-03T16:09:24.536Z,3.05
2023-01-03T16:11:56.655Z,7.47
2023-01-03T16:14:28.993Z,7.53
2023-01-03T16:16:58.029Z,6.03
2023-01-03T16:19:27.122Z,5.78
2023-01-03T16:22:32.460Z,5.55
2023-01-03T16:24:45.906Z,4.32
2023-01-03T16:27:20.987Z,4.50
2023-01-03T16:29:48.497Z,3.88
2023-01-03T16:32:21.681Z,4.32
2023-01-03T16:34:49.389Z,3.90
2023-01-03T16:37:17.139Z,4.03
2023-01-03T16:39:48.304Z,5.53
2023-01-03T16:42:15.917Z,5.25
2023-01-03T16:44:46.843Z,5.82
2023-01-03T16:47:22.342Z,6.25
2023-01-03T16:50:00.941Z,6.53
2023-01-03T16:52:34.312Z,6.97
2023-01-03T16:55:26.871Z,6.35
2023-01-03T16:57:55.273Z,7.38
2023-01-03T17:00:25.651Z,7.18
2023-01-03T17:02:56.198Z,5.95
2023-01-03T17:05:23.798Z,6.05
2023-01-03T17:07:53.475Z,5.97
2023-01-03T17:10:27.903Z,5.88
2023-01-03T17:12:59.506Z,5.60
2023-01-03T17:15:27.299Z,5.85
2023-01-03T17:17:54.495Z,4.90
2023-01-03T17:20:23.203Z,4.82
2023-01-03T17:22:54.371Z,4.22
2023-01-03T17:25:21.702Z,4.22
2023-01-03T17:27:59.602Z,4.25
2023-01-03T17:30:28.619Z,3.78
2023-01-03T17:32:55.791Z,4.15
2023-01-03T17:35:22.960Z,3.83
2023-01-03T17:40:39.636Z,3.88
2023-01-03T17:43:06.877Z,4.20
2023-01-03T17:45:52.390Z,3.70
2023-01-03T17:48:38.130Z,3.97
2023-01-03T17:51:05.348Z,3.97
2023-01-03T17:53:32.672Z,4.00
2023-01-03T17:55:59.798Z,3.95
2023-01-03T17:58:33.554Z,4.85
2023-01-03T18:01:00.833Z,4.30
2023-01-03T18:03:28.252Z,4.13
2023-01-03T18:05:56.307Z,5.32
2023-01-03T18:08:25.125Z,5.57
2023-01-03T18:10:55.920Z,5.90
2023-01-03T18:13:31.261Z,5.80
2023-01-03T18:15:59.082Z,5.78
2023-01-03T18:18:28.184Z,6.13
2023-01-03T18:20:56.280Z,6.25
2023-01-03T18:23:42.219Z,6.30
2023-01-03T18:26:14.125Z,6.18
2023-01-03T18:28:41.297Z,6.72
2023-01-03T18:31:17.332Z,6.80
2023-01-03T18:33:45.258Z,6.85
2023-01-03T18:36:27.949Z,6.55
2023-01-03T18:39:02.067Z,6.82
2023-01-03T18:41:31.148Z,6.50
2023-01-03T18:43:58.541Z,6.35
2023-01-03T18:46:28.546Z,6.65
2023-01-03T18:48:56.171Z,6.40
2023-01-03T18:51:27.348Z,6.80
2023-01-03T18:53:59.215Z,6.43
2023-01-03T18:56:32.311Z,6.70
2023-01-03T18:59:03.415Z,7.10
2023-01-03T19:01:31.104Z,6.90
2023-01-03T19:03:58.551Z,7.05
2023-01-03T19:06:34.035Z,6.30
2023-01-03T19:09:04.727Z,6.50
2023-01-03T19:11:36.118Z,5.93
2023-01-03T19:14:04.373Z,7.78
2023-01-03T19:16:36.655Z,6.90
2023-01-03T19:19:05.212Z,5.93
2023-01-03T19:21:39.120Z,6.22
2023-01-03T19:24:18.053Z,6.47
2023-01-03T19:26:50.923Z,7.18
2023-01-03T19:29:22.629Z,7.97
2023-01-03T19:31:52.224Z,7.80
2023-01-03T19:34:22.195Z,9.55
2023-01-03T19:36:49.990Z,9.98
2023-01-03T19:39:24.079Z,9.95
2023-01-03T19:42:14.514Z,10.90
2023-01-03T19:44:42.521Z,12.32
2023-01-03T19:47:15.035Z,11.95
2023-01-03T19:49:43.494Z,14.48
2023-01-03T19:52:10.674Z,12.02
2023-01-03T19:54:37.807Z,12.40
2023-01-03T19:57:05.665Z,11.63
2023-01-03T19:59:35.250Z,14.30
2023-01-03T20:02:25.376Z,10.05
2023-01-03T20:04:56.044Z,12.02
2023-01-03T20:07:23.382Z,12.15
2023-01-03T20:09:50.450Z,7.82
2023-01-03T20:12:24.646Z,8.25
2023-01-03T20:14:55.023Z,8.20
2023-01-03T20:17:26.642Z,7.35
2023-01-03T20:19:54.079Z,6.70
2023-01-03T20:23:02.368Z,8.05
2023-01-03T20:25:30.978Z,6.95
2023-01-03T20:27:59.816Z,6.70
2023-01-03T20:30:29.639Z,7.55
2023-01-03T20:32:57.277Z,7.78
2023-01-03T20:36:08.509Z,7.90
2023-01-03T20:38:17.022Z,8.68
2023-01-03T20:40:44.128Z,8.70
2023-01-03T20:43:14.919Z,9.25
2023-01-03T20:45:42.206Z,8.75
2023-01-03T20:48:19.289Z,8.88
2023-01-03T20:50:50.398Z,9.02
2023-01-03T20:53:20.587Z,9.57
2023-01-03T20:58:25.485Z,9.85
2023-01-03T21:00:56.936Z,9.18
2023-01-03T21:03:28.977Z,8.80
2023-01-03T21:05:56.448Z,10.18
2023-01-03T21:08:42.186Z,13.38
2023-01-03T21:11:09.213Z,13.07
2023-01-03T21:13:37.159Z,13.88
2023-01-03T21:16:28.365Z,11.45
2023-01-03T21:18:55.906Z,9.18
2023-01-03T21:21:24.601Z,9.63
2023-01-03T21:23:51.784Z,9.35
2023-01-03T21:26:19.824Z,10.10
2023-01-03T21:28:46.942Z,9.73
2023-01-03T21:31:19.286Z,9.88
2023-01-03T21:33:46.909Z,9.43
2023-01-03T21:36:23.007Z,10.82
2023-01-03T21:38:51.269Z,10.75
2023-01-03T21:41:21.188Z,9.60
2023-01-03T21:43:48.352Z,9.65
2023-01-03T21:46:17.453Z,9.23
2023-01-03T21:48:45.237Z,10.55
2023-01-03T21:51:14.102Z,10.80
2023-01-03T21:53:42.400Z,10.13
2023-01-03T21:56:15.401Z,9.38
2023-01-03T21:58:42.511Z,11.20
2023-01-03T22:01:18.114Z,10.93
2023-01-03T22:04:03.887Z,11.52
2023-01-03T22:06:31.159Z,9.57
2023-01-03T22:09:00.215Z,10.20
2023-01-03T22:11:28.673Z,9.80
2023-01-03T22:13:58.595Z,9.55
2023-01-03T22:16:26.265Z,9.95
2023-01-03T22:18:53.565Z,9.90
2023-01-03T22:21:21.483Z,10.50
2023-01-03T22:23:48.650Z,10.18
2023-01-03T22:26:16.614Z,8.93
2023-01-03T22:28:47.564Z,9.57
2023-01-03T22:31:17.681Z,10.55
2023-01-03T22:33:49.136Z,9.88
2023-01-03T22:36:17.023Z,10.80
2023-01-03T22:38:44.845Z,10.20
2023-01-03T22:41:17.433Z,10.18
2023-01-03T22:43:45.447Z,11.25
2023-01-03T22:46:17.157Z,11.00
2023-01-03T22:48:45.263Z,10.77
2023-01-03T22:51:14.603Z,11.57
2023-01-03T22:53:43.562Z,10.40
2023-01-03T22:56:15.379Z,11.20
2023-01-03T22:58:43.812Z,11.30
2023-01-03T23:01:13.120Z,10.60
2023-01-03T23:03:40.401Z,10.85
2023-01-03T23:06:09.518Z,9.82
2023-01-03T23:08:37.046Z,11.82
2023-01-03T23:11:33.367Z,11.23
2023-01-03T23:14:12.333Z,10.40
2023-01-03T23:16:40.457Z,11.02
2023-01-03T23:19:11.923Z,11.65
2023-01-03T23:21:39.409Z,11.48
2023-01-03T23:24:07.288Z,11.27
2023-01-03T23:26:34.350Z,10.63
2023-01-03T23:29:01.513Z,11.02
2023-01-03T23:31:29.015Z,10.57
2023-01-03T23:33:56.893Z,11.27
2023-01-03T23:36:24.621Z,11.77
2023-01-03T23:38:51.982Z,10.07
2023-01-03T23:41:19.995Z,10.63
2023-01-03T23:43:47.148Z,11.18
2023-01-03T23:46:17.501Z,11.18
2023-01-03T23:48:44.912Z,10.35
2023-01-03T23:51:12.983Z,10.73
2023-01-03T23:53:42.460Z,10.30
2023-01-03T23:56:13.606Z,11.43
2023-01-03T23:58:41.127Z,11.15
